sensor_id;sensor_type;location;lat;lon;timestamp;pressure;altitude;pressure_sealevel;temperature;humidity
6423;BME280;3244;42.708;23.288;2023-09-19T00:22:10;56616.03;;;23.25;100.00
6423;BME280;3244;42.708;23.288;2023-09-19T01:37:10;56616.03;;;23.25;100.00
6423;BME280;3244;42.708;23.288;2023-09-19T09:07:58;145487.84;;;-142.91;100.00
6423;BME280;3244;42.708;23.288;2023-09-19T10:04:27;56616.03;;;23.25;100.00
6423;BME280;3244;42.708;23.288;2023-09-19T10:22:04;56616.03;;;23.25;100.00
6423;BME280;3244;42.708;23.288;2023-09-19T10:29:32;56616.03;;;23.25;100.00
6423;BME280;3244;42.708;23.288;2023-09-19T10:36:59;56616.03;;;23.25;100.00
6423;BME280;3244;42.708;23.288;2023-09-19T10:39:31;56616.03;;;23.25;100.00
6423;BME280;3244;42.708;23.288;2023-09-19T10:44:33;61060.13;;;-142.91;100.00
6423;BME280;3244;42.708;23.288;2023-09-19T10:46:59;56616.03;;;23.25;100.00
6423;BME280;3244;42.708;23.288;2023-09-19T10:54:22;56616.03;;;23.25;100.00
6423;BME280;3244;42.708;23.288;2023-09-19T10:56:53;56616.03;;;23.25;100.00
6423;BME280;3244;42.708;23.288;2023-09-19T10:59:24;56616.03;;;23.25;100.00
6423;BME280;3244;42.708;23.288;2023-09-19T11:02:16;56616.03;;;23.25;100.00
6423;BME280;3244;42.708;23.288;2023-09-19T11:04:43;56616.03;;;23.25;100.00
6423;BME280;3244;42.708;23.288;2023-09-19T11:07:14;56616.03;;;23.25;100.00
6423;BME280;3244;42.708;23.288;2023-09-19T11:09:46;56616.03;;;23.25;100.00
6423;BME280;3244;42.708;23.288;2023-09-19T11:12:12;56616.03;;;23.25;100.00
6423;BME280;3244;42.708;23.288;2023-09-19T11:14:40;56616.03;;;23.25;100.00
6423;BME280;3244;42.708;23.288;2023-09-19T11:17:39;56616.03;;;23.25;100.00
6423;BME280;3244;42.708;23.288;2023-09-19T11:20:23;56616.03;;;23.25;100.00
6423;BME280;3244;42.708;23.288;2023-09-19T11:23:22;56616.03;;;23.25;100.00
6423;BME280;3244;42.708;23.288;2023-09-19T11:25:51;56616.03;;;23.25;100.00
6423;BME280;3244;42.708;23.288;2023-09-19T11:28:31;56616.03;;;23.25;100.00
6423;BME280;3244;42.708;23.288;2023-09-19T11:30:58;56616.03;;;23.25;100.00
6423;BME280;3244;42.708;23.288;2023-09-19T11:33:28;56616.03;;;23.25;100.00
6423;BME280;3244;42.708;23.288;2023-09-19T11:36:03;56616.03;;;23.25;100.00
6423;BME280;3244;42.708;23.288;2023-09-19T11:38:58;56616.03;;;23.25;100.00
6423;BME280;3244;42.708;23.288;2023-09-19T11:41:40;56616.03;;;23.25;100.00
6423;BME280;3244;42.708;23.288;2023-09-19T11:44:34;56616.03;;;23.25;100.00
6423;BME280;3244;42.708;23.288;2023-09-19T11:47:04;56616.03;;;23.25;100.00
6423;BME280;3244;42.708;23.288;2023-09-19T11:49:33;56616.03;;;-142.91;100.00
6423;BME280;3244;42.708;23.288;2023-09-19T11:52:03;56616.03;;;-142.91;100.00
6423;BME280;3244;42.708;23.288;2023-09-19T11:54:32;56616.03;;;23.25;100.00
6423;BME280;3244;42.708;23.288;2023-09-19T11:57:00;56616.03;;;23.25;100.00
6423;BME280;3244;42.708;23.288;2023-09-19T11:59:29;56616.03;;;-142.91;100.00
6423;BME280;3244;42.708;23.288;2023-09-19T12:01:57;56616.03;;;-142.91;100.00
6423;BME280;3244;42.708;23.288;2023-09-19T12:04:36;56616.03;;;23.25;100.00
6423;BME280;3244;42.708;23.288;2023-09-19T12:07:05;56616.03;;;23.25;100.00
6423;BME280;3244;42.708;23.288;2023-09-19T12:09:38;56616.03;;;-142.91;100.00
6423;BME280;3244;42.708;23.288;2023-09-19T12:12:06;56616.03;;;-142.91;100.00
6423;BME280;3244;42.708;23.288;2023-09-19T12:14:33;56616.03;;;-142.91;100.00
6423;BME280;3244;42.708;23.288;2023-09-19T12:17:00;56616.03;;;-142.91;100.00
6423;BME280;3244;42.708;23.288;2023-09-19T12:19:28;56616.03;;;-142.91;100.00
6423;BME280;3244;42.708;23.288;2023-09-19T12:21:58;56616.03;;;-142.91;100.00
6423;BME280;3244;42.708;23.288;2023-09-19T12:24:26;56616.03;;;-142.91;100.00
6423;BME280;3244;42.708;23.288;2023-09-19T12:27:00;56616.03;;;-142.91;100.00
6423;BME280;3244;42.708;23.288;2023-09-19T12:31:56;56616.03;;;-142.91;100.00
6423;BME280;3244;42.708;23.288;2023-09-19T12:34:24;56616.03;;;-142.91;100.00
6423;BME280;3244;42.708;23.288;2023-09-19T12:37:11;56616.03;;;-142.91;100.00
6423;BME280;3244;42.708;23.288;2023-09-19T12:39:43;56616.03;;;-142.91;100.00
6423;BME280;3244;42.708;23.288;2023-09-19T12:42:14;56616.03;;;-142.91;100.00
6423;BME280;3244;42.708;23.288;2023-09-19T12:44:42;56616.03;;;-142.91;100.00
6423;BME280;3244;42.708;23.288;2023-09-19T12:47:14;56616.03;;;-142.91;100.00
6423;BME280;3244;42.708;23.288;2023-09-19T12:50:06;56616.03;;;-142.91;100.00
6423;BME280;3244;42.708;23.288;2023-09-19T12:52:38;56616.03;;;-142.91;100.00
6423;BME280;3244;42.708;23.288;2023-09-19T12:55:05;56616.03;;;-142.91;100.00
6423;BME280;3244;42.708;23.288;2023-09-19T12:57:33;56616.03;;;-142.91;100.00
6423;BME280;3244;42.708;23.288;2023-09-19T13:00:00;56616.03;;;23.26;100.00
6423;BME280;3244;42.708;23.288;2023-09-19T13:02:27;56616.03;;;-142.91;100.00
6423;BME280;3244;42.708;23.288;2023-09-19T13:04:54;56616.03;;;-142.91;100.00
6423;BME280;3244;42.708;23.288;2023-09-19T13:07:45;56616.03;;;-142.91;100.00
6423;BME280;3244;42.708;23.288;2023-09-19T13:10:12;56616.03;;;-142.91;100.00
6423;BME280;3244;42.708;23.288;2023-09-19T13:12:42;56616.03;;;23.90;100.00
6423;BME280;3244;42.708;23.288;2023-09-19T13:15:14;56616.03;;;-142.91;100.00
6423;BME280;3244;42.708;23.288;2023-09-19T13:17:46;56616.03;;;23.90;100.00
6423;BME280;3244;42.708;23.288;2023-09-19T13:20:23;56616.03;;;24.55;100.00
6423;BME280;3244;42.708;23.288;2023-09-19T13:22:56;56616.03;;;28.45;100.00
6423;BME280;3244;42.708;23.288;2023-09-19T13:25:26;56616.03;;;25.85;100.00
6423;BME280;3244;42.708;23.288;2023-09-19T13:27:56;56616.03;;;33.65;100.00
6423;BME280;3244;42.708;23.288;2023-09-19T13:30:26;56616.03;;;33.65;100.00
6423;BME280;3244;42.708;23.288;2023-09-19T13:33:04;56616.03;;;23.25;100.00
6423;BME280;3244;42.708;23.288;2023-09-19T13:35:32;56616.03;;;23.25;100.00
6423;BME280;3244;42.708;23.288;2023-09-19T13:38:00;56616.03;;;23.25;100.00
6423;BME280;3244;42.708;23.288;2023-09-19T13:40:27;56616.03;;;-142.91;100.00
6423;BME280;3244;42.708;23.288;2023-09-19T13:42:56;56616.03;;;23.26;100.00
6423;BME280;3244;42.708;23.288;2023-09-19T13:45:22;56616.03;;;-142.91;100.00
6423;BME280;3244;42.708;23.288;2023-09-19T13:47:52;56616.03;;;-142.91;100.00
6423;BME280;3244;42.708;23.288;2023-09-19T13:50:19;56616.03;;;-142.91;100.00
6423;BME280;3244;42.708;23.288;2023-09-19T13:52:49;56616.03;;;-142.91;100.00
6423;BME280;3244;42.708;23.288;2023-09-19T13:55:18;56616.03;;;-142.91;100.00
6423;BME280;3244;42.708;23.288;2023-09-19T13:57:46;56616.03;;;-142.91;100.00
6423;BME280;3244;42.708;23.288;2023-09-19T14:00:15;56616.03;;;-142.91;100.00
6423;BME280;3244;42.708;23.288;2023-09-19T14:02:43;56616.03;;;-142.91;100.00
6423;BME280;3244;42.708;23.288;2023-09-19T14:05:11;56616.03;;;-142.91;100.00
6423;BME280;3244;42.708;23.288;2023-09-19T14:07:40;56616.03;;;-142.91;100.00
6423;BME280;3244;42.708;23.288;2023-09-19T14:10:08;56616.03;;;-142.91;100.00
6423;BME280;3244;42.708;23.288;2023-09-19T14:12:37;56616.03;;;-142.91;100.00
6423;BME280;3244;42.708;23.288;2023-09-19T14:15:06;56616.03;;;-142.91;100.00
6423;BME280;3244;42.708;23.288;2023-09-19T14:17:33;56616.03;;;-142.91;100.00
6423;BME280;3244;42.708;23.288;2023-09-19T14:20:00;56616.03;;;-142.91;100.00
6423;BME280;3244;42.708;23.288;2023-09-19T14:22:27;56616.03;;;-142.91;100.00
6423;BME280;3244;42.708;23.288;2023-09-19T14:24:53;56616.03;;;-142.91;100.00
6423;BME280;3244;42.708;23.288;2023-09-19T14:27:20;56616.03;;;-142.91;100.00
6423;BME280;3244;42.708;23.288;2023-09-19T14:29:48;56616.03;;;-142.91;100.00
6423;BME280;3244;42.708;23.288;2023-09-19T14:32:15;56616.03;;;-142.91;100.00
6423;BME280;3244;42.708;23.288;2023-09-19T14:34:41;56616.03;;;-142.91;100.00
6423;BME280;3244;42.708;23.288;2023-09-19T14:37:09;56616.03;;;-142.91;100.00
6423;BME280;3244;42.708;23.288;2023-09-19T14:39:36;56616.03;;;-142.91;100.00
6423;BME280;3244;42.708;23.288;2023-09-19T14:42:04;56616.03;;;-142.91;100.00
6423;BME280;3244;42.708;23.288;2023-09-19T14:44:30;56616.03;;;-142.91;100.00
6423;BME280;3244;42.708;23.288;2023-09-19T14:46:58;56616.03;;;-142.91;100.00
6423;BME280;3244;42.708;23.288;2023-09-19T14:49:25;56616.03;;;-142.91;100.00
6423;BME280;3244;42.708;23.288;2023-09-19T14:51:52;56616.03;;;-142.91;100.00
6423;BME280;3244;42.708;23.288;2023-09-19T14:54:18;56616.03;;;-142.91;100.00
6423;BME280;3244;42.708;23.288;2023-09-19T14:56:46;56616.03;;;-142.91;100.00
6423;BME280;3244;42.708;23.288;2023-09-19T14:59:19;56616.03;;;-142.91;100.00
6423;BME280;3244;42.708;23.288;2023-09-19T15:01:45;56616.03;;;-142.91;100.00
6423;BME280;3244;42.708;23.288;2023-09-19T15:04:13;56616.03;;;-142.91;100.00
6423;BME280;3244;42.708;23.288;2023-09-19T15:06:40;56616.03;;;-142.91;100.00
6423;BME280;3244;42.708;23.288;2023-09-19T15:09:07;56616.03;;;-142.91;100.00
6423;BME280;3244;42.708;23.288;2023-09-19T15:11:35;56616.03;;;-142.91;100.00
6423;BME280;3244;42.708;23.288;2023-09-19T15:14:01;56616.03;;;-142.91;100.00
6423;BME280;3244;42.708;23.288;2023-09-19T15:16:29;56616.03;;;-142.91;100.00
6423;BME280;3244;42.708;23.288;2023-09-19T15:18:55;56616.03;;;-142.91;100.00
6423;BME280;3244;42.708;23.288;2023-09-19T15:21:24;56616.03;;;-142.91;100.00
6423;BME280;3244;42.708;23.288;2023-09-19T15:23:51;56616.03;;;-142.91;100.00
6423;BME280;3244;42.708;23.288;2023-09-19T15:26:18;56616.03;;;-142.91;100.00
6423;BME280;3244;42.708;23.288;2023-09-19T15:28:47;56616.03;;;-142.91;100.00
6423;BME280;3244;42.708;23.288;2023-09-19T15:31:14;56616.03;;;-142.91;100.00
6423;BME280;3244;42.708;23.288;2023-09-19T15:33:41;56616.03;;;-142.91;100.00
6423;BME280;3244;42.708;23.288;2023-09-19T15:36:10;56616.03;;;-142.91;100.00
6423;BME280;3244;42.708;23.288;2023-09-19T15:39:05;56616.03;;;-142.91;100.00
6423;BME280;3244;42.708;23.288;2023-09-19T15:41:34;56616.03;;;-142.91;100.00
6423;BME280;3244;42.708;23.288;2023-09-19T15:44:03;56616.03;;;-142.91;100.00
6423;BME280;3244;42.708;23.288;2023-09-19T15:46:30;56616.03;;;-142.91;100.00
6423;BME280;3244;42.708;23.288;2023-09-19T15:48:58;56616.03;;;-142.91;100.00
6423;BME280;3244;42.708;23.288;2023-09-19T15:51:25;56616.03;;;-142.91;100.00
6423;BME280;3244;42.708;23.288;2023-09-19T15:53:53;56616.03;;;-142.91;100.00
6423;BME280;3244;42.708;23.288;2023-09-19T15:56:22;56616.03;;;-142.91;100.00
6423;BME280;3244;42.708;23.288;2023-09-19T15:58:50;56616.03;;;-142.91;100.00
6423;BME280;3244;42.708;23.288;2023-09-19T16:01:18;56616.03;;;-142.91;100.00
6423;BME280;3244;42.708;23.288;2023-09-19T16:03:47;56616.03;;;-142.91;100.00
6423;BME280;3244;42.708;23.288;2023-09-19T16:06:16;56616.03;;;-142.91;100.00
6423;BME280;3244;42.708;23.288;2023-09-19T16:08:44;56616.03;;;-142.91;100.00
6423;BME280;3244;42.708;23.288;2023-09-19T16:11:12;56616.03;;;-142.91;100.00
6423;BME280;3244;42.708;23.288;2023-09-19T16:13:41;56616.03;;;-142.91;100.00
6423;BME280;3244;42.708;23.288;2023-09-19T16:16:09;56616.03;;;-142.91;100.00
6423;BME280;3244;42.708;23.288;2023-09-19T16:18:37;56616.03;;;-142.91;100.00
6423;BME280;3244;42.708;23.288;2023-09-19T16:21:05;56616.03;;;-142.91;100.00
6423;BME280;3244;42.708;23.288;2023-09-19T16:23:33;56616.03;;;-142.91;100.00
6423;BME280;3244;42.708;23.288;2023-09-19T16:26:02;56616.03;;;-142.91;100.00
6423;BME280;3244;42.708;23.288;2023-09-19T16:28:30;56616.03;;;-142.91;100.00
6423;BME280;3244;42.708;23.288;2023-09-19T16:30:58;56616.03;;;-142.91;100.00
6423;BME280;3244;42.708;23.288;2023-09-19T16:33:27;56616.03;;;-142.91;100.00
6423;BME280;3244;42.708;23.288;2023-09-19T16:35:54;56616.03;;;-142.91;100.00
6423;BME280;3244;42.708;23.288;2023-09-19T16:38:23;56616.03;;;-142.91;100.00
6423;BME280;3244;42.708;23.288;2023-09-19T16:40:53;56616.03;;;-142.91;100.00
6423;BME280;3244;42.708;23.288;2023-09-19T16:43:20;56616.03;;;-142.91;100.00
6423;BME280;3244;42.708;23.288;2023-09-19T16:45:52;56616.03;;;-142.91;100.00
6423;BME280;3244;42.708;23.288;2023-09-19T16:48:21;56616.03;;;-142.91;100.00
6423;BME280;3244;42.708;23.288;2023-09-19T16:50:48;56616.03;;;-142.91;100.00
6423;BME280;3244;42.708;23.288;2023-09-19T16:53:16;56616.03;;;-142.91;100.00
6423;BME280;3244;42.708;23.288;2023-09-19T16:55:43;56616.03;;;-142.91;100.00
6423;BME280;3244;42.708;23.288;2023-09-19T16:58:11;56616.03;;;-142.91;100.00
6423;BME280;3244;42.708;23.288;2023-09-19T17:00:38;56616.03;;;-142.91;100.00
6423;BME280;3244;42.708;23.288;2023-09-19T17:03:05;56616.03;;;-142.91;100.00
6423;BME280;3244;42.708;23.288;2023-09-19T17:05:34;56616.03;;;-142.91;100.00
6423;BME280;3244;42.708;23.288;2023-09-19T17:08:01;56616.03;;;-142.91;100.00
6423;BME280;3244;42.708;23.288;2023-09-19T17:10:30;56616.03;;;-142.91;100.00
6423;BME280;3244;42.708;23.288;2023-09-19T17:12:58;56616.03;;;-142.91;100.00
6423;BME280;3244;42.708;23.288;2023-09-19T17:15:24;56616.03;;;-142.91;100.00
6423;BME280;3244;42.708;23.288;2023-09-19T17:17:52;56616.03;;;-142.91;100.00
6423;BME280;3244;42.708;23.288;2023-09-19T17:20:19;56616.03;;;-142.91;100.00
6423;BME280;3244;42.708;23.288;2023-09-19T17:22:47;56616.03;;;-142.91;100.00
6423;BME280;3244;42.708;23.288;2023-09-19T17:25:15;56616.03;;;-142.91;100.00
6423;BME280;3244;42.708;23.288;2023-09-19T17:27:42;56616.03;;;-142.91;100.00
6423;BME280;3244;42.708;23.288;2023-09-19T17:30:10;56616.03;;;-142.91;100.00
6423;BME280;3244;42.708;23.288;2023-09-19T17:32:39;56616.03;;;-142.91;100.00
6423;BME280;3244;42.708;23.288;2023-09-19T17:35:06;56616.03;;;-142.91;100.00
6423;BME280;3244;42.708;23.288;2023-09-19T17:37:34;56616.03;;;-142.91;100.00
6423;BME280;3244;42.708;23.288;2023-09-19T17:40:03;56616.03;;;-142.91;100.00
6423;BME280;3244;42.708;23.288;2023-09-19T17:42:30;56616.03;;;-142.91;100.00
6423;BME280;3244;42.708;23.288;2023-09-19T17:44:57;56616.03;;;-142.91;100.00
6423;BME280;3244;42.708;23.288;2023-09-19T17:47:24;56616.03;;;-142.91;100.00
6423;BME280;3244;42.708;23.288;2023-09-19T17:49:50;56616.03;;;-142.91;100.00
6423;BME280;3244;42.708;23.288;2023-09-19T17:52:17;56616.03;;;-142.91;100.00
6423;BME280;3244;42.708;23.288;2023-09-19T17:54:44;56616.03;;;-142.91;100.00
6423;BME280;3244;42.708;23.288;2023-09-19T17:57:12;56616.03;;;-142.91;100.00
6423;BME280;3244;42.708;23.288;2023-09-19T17:59:39;56616.03;;;-142.91;100.00
6423;BME280;3244;42.708;23.288;2023-09-19T18:02:05;56616.03;;;-142.91;100.00
6423;BME280;3244;42.708;23.288;2023-09-19T18:04:33;56616.03;;;-142.91;100.00
6423;BME280;3244;42.708;23.288;2023-09-19T18:07:00;56616.03;;;-142.91;100.00
6423;BME280;3244;42.708;23.288;2023-09-19T18:09:27;56616.03;;;-142.91;100.00
6423;BME280;3244;42.708;23.288;2023-09-19T18:11:53;56616.03;;;-142.91;100.00
6423;BME280;3244;42.708;23.288;2023-09-19T18:14:21;56616.03;;;-142.91;100.00
6423;BME280;3244;42.708;23.288;2023-09-19T18:16:48;56616.03;;;-142.91;100.00
6423;BME280;3244;42.708;23.288;2023-09-19T18:19:18;56616.03;;;-142.91;100.00
6423;BME280;3244;42.708;23.288;2023-09-19T18:21:44;56616.03;;;-142.91;100.00
6423;BME280;3244;42.708;23.288;2023-09-19T18:24:11;56616.03;;;-142.91;100.00
6423;BME280;3244;42.708;23.288;2023-09-19T18:26:39;56616.03;;;-142.91;100.00
6423;BME280;3244;42.708;23.288;2023-09-19T18:29:07;95082.56;;;22.55;nan
6423;BME280;3244;42.708;23.288;2023-09-19T18:31:36;95078.88;;;22.68;nan
6423;BME280;3244;42.708;23.288;2023-09-19T18:34:03;95088.97;;;22.51;nan
6423;BME280;3244;42.708;23.288;2023-09-19T18:36:32;95094.88;;;22.30;nan
6423;BME280;3244;42.708;23.288;2023-09-19T18:39:00;95092.03;;;22.33;nan
6423;BME280;3244;42.708;23.288;2023-09-19T18:41:26;95100.09;;;22.08;nan
6423;BME280;3244;42.708;23.288;2023-09-19T18:43:54;95100.09;;;22.19;nan
6423;BME280;3244;42.708;23.288;2023-09-19T18:46:23;95094.56;;;22.13;nan
6423;BME280;3244;42.708;23.288;2023-09-19T18:48:52;95105.84;;;22.12;nan
6423;BME280;3244;42.708;23.288;2023-09-19T18:51:20;95114.69;;;22.20;nan
6423;BME280;3244;42.708;23.288;2023-09-19T18:53:49;95117.03;;;22.23;nan
6423;BME280;3244;42.708;23.288;2023-09-19T18:56:16;95116.06;;;22.35;nan
6423;BME280;3244;42.708;23.288;2023-09-19T18:58:43;95115.59;;;22.30;nan
6423;BME280;3244;42.708;23.288;2023-09-19T19:01:11;95105.94;;;22.32;nan
6423;BME280;3244;42.708;23.288;2023-09-19T19:03:41;95115.81;;;22.27;nan
6423;BME280;3244;42.708;23.288;2023-09-19T19:06:11;95114.22;;;22.15;nan
6423;BME280;3244;42.708;23.288;2023-09-19T19:08:41;95119.88;;;22.09;nan
6423;BME280;3244;42.708;23.288;2023-09-19T19:11:11;95107.38;;;21.92;nan
6423;BME280;3244;42.708;23.288;2023-09-19T19:13:40;95108.56;;;21.88;nan
6423;BME280;3244;42.708;23.288;2023-09-19T19:16:06;95104.31;;;21.87;nan
6423;BME280;3244;42.708;23.288;2023-09-19T19:18:36;95106.66;;;21.79;nan
6423;BME280;3244;42.708;23.288;2023-09-19T19:21:03;95114.94;;;21.72;nan
6423;BME280;3244;42.708;23.288;2023-09-19T19:23:34;95120.09;;;21.72;nan
6423;BME280;3244;42.708;23.288;2023-09-19T19:26:01;95120.09;;;21.72;nan
6423;BME280;3244;42.708;23.288;2023-09-19T19:28:30;95120.09;;;21.61;nan
6423;BME280;3244;42.708;23.288;2023-09-19T19:30:56;95132.06;;;21.51;nan
6423;BME280;3244;42.708;23.288;2023-09-19T19:33:24;95133.34;;;21.57;nan
6423;BME280;3244;42.708;23.288;2023-09-19T19:35:52;95131.38;;;21.49;nan
6423;BME280;3244;42.708;23.288;2023-09-19T19:38:19;95126.31;;;21.59;nan
6423;BME280;3244;42.708;23.288;2023-09-19T19:40:58;95136.31;;;21.52;nan
6423;BME280;3244;42.708;23.288;2023-09-19T19:43:25;95140.78;;;21.61;nan
6423;BME280;3244;42.708;23.288;2023-09-19T19:45:55;95144.66;;;21.67;nan
6423;BME280;3244;42.708;23.288;2023-09-19T19:48:22;95151.47;;;21.68;nan
6423;BME280;3244;42.708;23.288;2023-09-19T19:50:49;95163.34;;;21.59;nan
6423;BME280;3244;42.708;23.288;2023-09-19T19:53:15;95166.63;;;21.61;nan
6423;BME280;3244;42.708;23.288;2023-09-19T19:55:43;95181.00;;;21.65;nan
6423;BME280;3244;42.708;23.288;2023-09-19T19:58:13;95201.91;;;21.51;nan
6423;BME280;3244;42.708;23.288;2023-09-19T20:00:41;95212.13;;;21.64;nan
6423;BME280;3244;42.708;23.288;2023-09-19T20:03:09;95216.03;;;21.69;nan
6423;BME280;3244;42.708;23.288;2023-09-19T20:05:38;95222.84;;;21.70;nan
6423;BME280;3244;42.708;23.288;2023-09-19T20:08:06;95233.69;;;21.76;nan
6423;BME280;3244;42.708;23.288;2023-09-19T20:10:36;95258.13;;;21.83;nan
6423;BME280;3244;42.708;23.288;2023-09-19T20:13:04;95293.25;;;21.98;nan
6423;BME280;3244;42.708;23.288;2023-09-19T20:15:33;95301.28;;;21.71;nan
6423;BME280;3244;42.708;23.288;2023-09-19T20:18:00;95314.97;;;21.60;nan
6423;BME280;3244;42.708;23.288;2023-09-19T20:20:27;95343.63;;;21.81;nan
6423;BME280;3244;42.708;23.288;2023-09-19T20:22:54;95359.53;;;21.88;nan
6423;BME280;3244;42.708;23.288;2023-09-19T20:25:22;95366.88;;;21.70;nan
6423;BME280;3244;42.708;23.288;2023-09-19T20:27:49;95382.84;;;21.64;nan
6423;BME280;3244;42.708;23.288;2023-09-19T20:30:16;95380.16;;;21.65;nan
6423;BME280;3244;42.708;23.288;2023-09-19T20:32:47;95389.34;;;21.46;nan
6423;BME280;3244;42.708;23.288;2023-09-19T20:35:14;95382.50;;;21.45;nan
6423;BME280;3244;42.708;23.288;2023-09-19T20:37:42;95385.13;;;21.32;nan
6423;BME280;3244;42.708;23.288;2023-09-19T20:40:10;95389.16;;;21.36;nan
6423;BME280;3244;42.708;23.288;2023-09-19T20:42:36;95401.09;;;21.26;nan
6423;BME280;3244;42.708;23.288;2023-09-19T20:45:05;95390.03;;;21.24;nan
6423;BME280;3244;42.708;23.288;2023-09-19T20:47:31;95404.94;;;21.20;nan
6423;BME280;3244;42.708;23.288;2023-09-19T20:50:00;95402.13;;;21.11;nan
6423;BME280;3244;42.708;23.288;2023-09-19T20:52:26;95421.06;;;21.24;nan
6423;BME280;3244;42.708;23.288;2023-09-19T20:54:53;95443.16;;;21.15;nan
6423;BME280;3244;42.708;23.288;2023-09-19T20:57:20;95438.59;;;21.19;nan
6423;BME280;3244;42.708;23.288;2023-09-19T20:59:47;95447.53;;;20.89;nan
6423;BME280;3244;42.708;23.288;2023-09-19T21:02:14;95454.66;;;20.73;nan
6423;BME280;3244;42.708;23.288;2023-09-19T21:04:40;95453.53;;;20.52;nan
6423;BME280;3244;42.708;23.288;2023-09-19T21:07:08;95440.47;;;20.41;nan
6423;BME280;3244;42.708;23.288;2023-09-19T21:09:36;95426.81;;;20.26;nan
6423;BME280;3244;42.708;23.288;2023-09-19T21:12:03;95411.09;;;20.16;nan
6423;BME280;3244;42.708;23.288;2023-09-19T21:14:30;95417.09;;;20.29;nan
6423;BME280;3244;42.708;23.288;2023-09-19T21:16:57;95419.50;;;19.93;nan
6423;BME280;3244;42.708;23.288;2023-09-19T21:19:23;95403.00;;;19.95;nan
6423;BME280;3244;42.708;23.288;2023-09-19T21:21:50;95376.19;;;19.98;nan
6423;BME280;3244;42.708;23.288;2023-09-19T21:24:20;95353.97;;;19.56;nan
6423;BME280;3244;42.708;23.288;2023-09-19T21:26:48;95326.03;;;19.23;nan
6423;BME280;3244;42.708;23.288;2023-09-19T21:29:16;95305.69;;;18.91;nan
6423;BME280;3244;42.708;23.288;2023-09-19T21:31:43;56616.03;;;106.45;100.00
6423;BME280;3244;42.708;23.288;2023-09-19T21:34:11;56616.03;;;-142.91;100.00
6423;BME280;3244;42.708;23.288;2023-09-19T21:36:38;56616.03;;;-142.91;100.00
6423;BME280;3244;42.708;23.288;2023-09-19T21:39:06;56616.03;;;-142.91;100.00
6423;BME280;3244;42.708;23.288;2023-09-19T21:41:34;56616.03;;;-142.91;100.00
6423;BME280;3244;42.708;23.288;2023-09-19T21:44:01;56616.03;;;-142.91;100.00
6423;BME280;3244;42.708;23.288;2023-09-19T21:46:28;56616.03;;;-142.91;100.00
6423;BME280;3244;42.708;23.288;2023-09-19T21:48:55;56616.03;;;-142.91;100.00
6423;BME280;3244;42.708;23.288;2023-09-19T21:51:26;56616.03;;;-142.91;100.00
6423;BME280;3244;42.708;23.288;2023-09-19T21:53:53;56616.03;;;-142.91;100.00
6423;BME280;3244;42.708;23.288;2023-09-19T21:56:22;56616.03;;;-142.91;100.00
6423;BME280;3244;42.708;23.288;2023-09-19T21:58:51;56616.03;;;-142.91;100.00
6423;BME280;3244;42.708;23.288;2023-09-19T22:01:19;56616.03;;;-142.91;100.00
6423;BME280;3244;42.708;23.288;2023-09-19T22:03:50;56616.03;;;-142.91;100.00
6423;BME280;3244;42.708;23.288;2023-09-19T22:06:17;56616.03;;;-142.91;100.00
6423;BME280;3244;42.708;23.288;2023-09-19T22:08:46;56616.03;;;-142.91;100.00
6423;BME280;3244;42.708;23.288;2023-09-19T22:11:15;56616.03;;;23.90;100.00
6423;BME280;3244;42.708;23.288;2023-09-19T22:13:42;56616.03;;;-142.91;100.00
6423;BME280;3244;42.708;23.288;2023-09-19T22:43:18;56616.03;;;23.25;100.00
6423;BME280;3244;42.708;23.288;2023-09-19T22:45:46;56616.03;;;23.25;100.00
6423;BME280;3244;42.708;23.288;2023-09-19T22:48:13;56616.03;;;-142.91;100.00
6423;BME280;3244;42.708;23.288;2023-09-19T22:50:42;56616.03;;;-142.91;100.00
6423;BME280;3244;42.708;23.288;2023-09-19T22:53:11;56616.03;;;23.25;100.00
6423;BME280;3244;42.708;23.288;2023-09-19T22:55:44;56616.03;;;23.25;100.00
6423;BME280;3244;42.708;23.288;2023-09-19T22:58:11;56616.03;;;23.25;100.00
6423;BME280;3244;42.708;23.288;2023-09-19T23:00:39;56616.03;;;23.25;100.00
6423;BME280;3244;42.708;23.288;2023-09-19T23:03:07;56616.03;;;23.26;100.00
6423;BME280;3244;42.708;23.288;2023-09-19T23:05:38;56616.03;;;-142.91;100.00
6423;BME280;3244;42.708;23.288;2023-09-19T23:08:09;56616.03;;;-142.91;100.00
6423;BME280;3244;42.708;23.288;2023-09-19T23:10:39;56616.03;;;-142.91;100.00
6423;BME280;3244;42.708;23.288;2023-09-19T23:13:09;56616.03;;;-142.91;100.00
6423;BME280;3244;42.708;23.288;2023-09-19T23:15:37;56616.03;;;-142.91;100.00
6423;BME280;3244;42.708;23.288;2023-09-19T23:18:04;56616.03;;;23.25;100.00
6423;BME280;3244;42.708;23.288;2023-09-19T23:23:04;56616.03;;;-142.91;100.00
6423;BME280;3244;42.708;23.288;2023-09-19T23:25:35;56616.03;;;-142.91;100.00
6423;BME280;3244;42.708;23.288;2023-09-19T23:28:11;56616.03;;;24.55;100.00
6423;BME280;3244;42.708;23.288;2023-09-19T23:30:40;56616.03;;;23.90;100.00
6423;BME280;3244;42.708;23.288;2023-09-19T23:33:08;56616.03;;;-142.91;100.00
6423;BME280;3244;42.708;23.288;2023-09-19T23:35:36;56616.03;;;106.45;100.00
6423;BME280;3244;42.708;23.288;2023-09-19T23:38:03;56616.03;;;23.25;100.00
6423;BME280;3244;42.708;23.288;2023-09-19T23:40:31;56616.03;;;-142.91;100.00
6423;BME280;3244;42.708;23.288;2023-09-19T23:42:59;56616.03;;;-142.91;100.00
6423;BME280;3244;42.708;23.288;2023-09-19T23:45:26;56616.03;;;-142.91;100.00
6423;BME280;3244;42.708;23.288;2023-09-19T23:47:55;56616.03;;;-142.91;100.00
6423;BME280;3244;42.708;23.288;2023-09-19T23:50:21;56616.03;;;44.04;100.00
6423;BME280;3244;42.708;23.288;2023-09-19T23:52:49;56616.03;;;-142.91;100.00
6423;BME280;3244;42.708;23.288;2023-09-19T23:55:16;56616.03;;;-142.91;100.00
6423;BME280;3244;42.708;23.288;2023-09-19T23:57:49;56616.03;;;-142.91;100.00
